createdAt,value
2018-02-04T11:04:58.496Z,14
2018-02-04T11:05:58.470Z,14
2018-02-04T11:06:58.400Z,14.1
2018-02-04T11:07:58.545Z,14
2018-02-04T11:08:58.438Z,14
2018-02-04T11:09:58.383Z,14
2018-02-04T11:10:58.289Z,14.1
2018-02-04T11:11:58.666Z,14.1
2018-02-04T11:12:57.661Z,13.9
2018-02-04T11:13:57.879Z,13.8
2018-02-04T11:14:57.729Z,13.6
2018-02-04T11:15:57.722Z,13.6
2018-02-04T11:16:57.785Z,13.5
2018-02-04T11:17:57.683Z,13.4
2018-02-04T11:18:57.485Z,13.5
2018-02-04T11:19:57.359Z,13.4
2018-02-04T11:20:57.260Z,13.3
2018-02-04T11:21:57.198Z,13.3
2018-02-04T11:22:57.449Z,13.4
2018-02-04T11:23:57.247Z,13.5
2018-02-04T11:24:56.878Z,13.7
2018-02-04T11:25:57.094Z,13.8
2018-02-04T11:26:56.781Z,14
2018-02-04T11:27:56.541Z,13.9
2018-02-04T11:28:56.953Z,13.8
2018-02-04T11:29:56.554Z,13.8
2018-02-04T11:30:56.871Z,13.9
2018-02-04T11:31:56.298Z,13.9
2018-02-04T11:32:56.259Z,13.9
2018-02-04T11:33:56.459Z,13.8
2018-02-04T11:34:56.822Z,13.6
2018-02-04T11:35:56.574Z,13.4
2018-02-04T11:36:56.183Z,13.3
2018-02-04T11:37:56.204Z,13.2
2018-02-04T11:38:55.855Z,13.1
2018-02-04T11:39:55.912Z,13
2018-02-04T11:40:56.109Z,12.9
2018-02-04T11:41:55.445Z,12.8
2018-02-04T11:42:55.533Z,12.8
2018-02-04T11:43:55.472Z,12.7
2018-02-04T11:44:55.674Z,12.6
2018-02-04T11:45:55.220Z,12.5
2018-02-04T11:46:55.242Z,12.5
2018-02-04T11:47:55.304Z,12.4
2018-02-04T11:48:55.152Z,12.3
2018-02-04T11:49:54.997Z,12.3
2018-02-04T11:50:54.799Z,12.2
2018-02-04T11:51:55.089Z,12.2
2018-02-04T11:52:55.084Z,11.9
2018-02-04T11:53:54.860Z,11.9
2018-02-04T11:54:54.819Z,11.8
2018-02-04T11:55:54.912Z,11.8
2018-02-04T11:56:55.126Z,11.8
2018-02-04T11:57:54.713Z,11.8
2018-02-04T11:58:54.166Z,11.8
2018-02-04T11:59:54.199Z,11.6
2018-02-04T12:00:54.367Z,11.6
2018-02-04T12:01:54.162Z,11.4
2018-02-04T12:02:54.377Z,11.4
2018-02-04T12:03:53.860Z,11.4
2018-02-04T12:04:53.607Z,11.3
2018-02-04T12:05:53.849Z,11.3
2018-02-04T12:06:53.555Z,11.3
2018-02-04T12:07:54.007Z,11.2
2018-02-04T12:08:53.687Z,11.1
2018-02-04T12:09:53.669Z,11.2
2018-02-04T12:10:53.532Z,11.1
2018-02-04T12:11:53.353Z,11.1
2018-02-04T12:12:53.237Z,11
2018-02-04T12:13:53.997Z,10.8
2018-02-04T12:14:53.329Z,10.7
2018-02-04T12:15:53.131Z,10.6
2018-02-04T12:16:52.983Z,10.4
2018-02-04T12:17:53.280Z,10.3
2018-02-04T12:18:53.044Z,10.1
2018-02-04T12:19:52.865Z,9.9
2018-02-04T12:20:52.533Z,9.8
2018-02-04T12:21:52.504Z,9.6
2018-02-04T12:22:52.757Z,9.6
2018-02-04T12:23:52.746Z,9.4
2018-02-04T12:24:52.308Z,9.3
2018-02-04T12:25:52.349Z,9.3
2018-02-04T12:26:52.636Z,9.1
2018-02-04T12:27:52.428Z,9.1
2018-02-04T12:28:51.938Z,8.9
2018-02-04T12:29:52.428Z,8.9
2018-02-04T12:30:51.973Z,8.8
2018-02-04T12:31:52.112Z,8.8
2018-02-04T12:32:51.819Z,8.8
2018-02-04T12:33:51.693Z,8.7
2018-02-04T12:34:51.809Z,8.6
2018-02-04T12:35:51.651Z,8.6
2018-02-04T12:36:51.801Z,8.6
2018-02-04T12:37:51.596Z,8.6
2018-02-04T12:38:51.790Z,8.5
2018-02-04T12:39:51.645Z,8.5
2018-02-04T12:40:51.586Z,8.6
2018-02-04T12:41:51.460Z,8.6
2018-02-04T12:42:51.442Z,8.6
2018-02-04T12:43:50.992Z,8.6
2018-02-04T12:44:51.390Z,8.6
2018-02-04T12:45:51.017Z,8.8
2018-02-04T12:46:51.293Z,8.8
2018-02-04T12:47:50.924Z,8.8
2018-02-04T12:48:51.455Z,8.9
2018-02-04T12:49:50.901Z,9
2018-02-04T12:50:50.428Z,8.9
2018-02-04T12:51:50.844Z,9
2018-02-04T12:52:51.040Z,9
2018-02-04T12:53:50.488Z,9
2018-02-04T12:54:50.398Z,8.9
2018-02-04T12:55:50.301Z,8.9
2018-02-04T12:56:50.212Z,8.9
2018-02-04T12:57:50.243Z,8.9
2018-02-04T12:58:50.154Z,8.9
2018-02-04T12:59:49.878Z,8.9
2018-02-04T13:00:50.051Z,8.8
2018-02-04T13:01:50.210Z,8.9
2018-02-04T13:02:49.949Z,8.8
2018-02-04T13:03:49.828Z,8.8
2018-02-04T13:04:49.644Z,8.8
2018-02-04T13:05:49.847Z,8.8
2018-02-04T13:06:49.599Z,8.8
2018-02-04T13:07:49.301Z,8.9
2018-02-04T13:08:49.420Z,8.9
2018-02-04T13:09:48.986Z,8.9
2018-02-04T13:10:49.162Z,9
2018-02-04T13:11:49.016Z,8.9
2018-02-04T13:12:49.280Z,9
2018-02-04T13:13:48.562Z,9
2018-02-04T13:14:49.236Z,9
2018-02-04T13:15:48.956Z,9.1
2018-02-04T13:16:48.949Z,9
2018-02-04T13:17:49.096Z,9
2018-02-04T13:18:48.222Z,9
2018-02-04T13:19:48.651Z,9.1
2018-02-04T13:20:48.905Z,9
2018-02-04T13:21:48.491Z,9.1
2018-02-04T13:22:48.287Z,9
2018-02-04T13:23:48.090Z,9.1
2018-02-04T13:24:47.926Z,9.1
2018-02-04T13:25:48.234Z,9.1
2018-02-04T13:26:47.744Z,9.1
2018-02-04T13:27:47.756Z,9.1
2018-02-04T13:28:48.459Z,9.1
2018-02-04T13:29:47.906Z,9.1
2018-02-04T13:30:48.264Z,9
2018-02-04T13:31:47.469Z,8.9
2018-02-04T13:32:47.384Z,8.9
2018-02-04T13:33:47.508Z,8.9
2018-02-04T13:34:47.604Z,8.9
2018-02-04T13:35:46.916Z,8.9
2018-02-04T13:36:47.051Z,8.9
2018-02-04T13:37:46.747Z,8.9
2018-02-04T13:38:47.214Z,9
2018-02-04T13:39:46.615Z,9
2018-02-04T13:40:46.812Z,9
2018-02-04T13:41:46.685Z,9
2018-02-04T13:42:46.674Z,9
2018-02-04T13:43:46.616Z,9.1
2018-02-04T13:44:47.081Z,9.1
2018-02-04T13:45:46.326Z,9.1
2018-02-04T13:46:46.200Z,9.1
2018-02-04T13:47:46.155Z,9.1
2018-02-04T13:48:46.214Z,9.2
2018-02-04T13:49:46.125Z,9.1
2018-02-04T13:50:46.355Z,9.2
2018-02-04T13:51:46.089Z,9.2
2018-02-04T13:52:46.039Z,9.1
2018-02-04T13:53:45.842Z,9.1
2018-02-04T13:54:45.778Z,9.1
2018-02-04T13:55:45.903Z,9.1
2018-02-04T13:56:45.585Z,9.1
2018-02-04T13:57:45.523Z,9.1
2018-02-04T13:58:45.322Z,9.1
2018-02-04T13:59:45.475Z,9.1
2018-02-04T14:00:45.085Z,9.1
2018-02-04T14:01:45.039Z,9.1
2018-02-04T14:02:44.918Z,9.1
2018-02-04T14:03:44.994Z,9.1
2018-02-04T14:04:44.816Z,9.1
2018-02-04T14:05:44.960Z,9
2018-02-04T14:06:44.745Z,8.9
2018-02-04T14:07:44.940Z,8.9
2018-02-04T14:08:44.455Z,8.8
2018-02-04T14:09:44.468Z,8.8
2018-02-04T14:10:44.643Z,8.8
2018-02-04T14:11:44.796Z,8.8
2018-02-04T14:12:44.230Z,8.8
2018-02-04T14:13:44.114Z,8.8
2018-02-04T14:14:44.219Z,8.8
2018-02-04T14:15:44.204Z,8.8
2018-02-04T14:16:44.183Z,8.7
2018-02-04T14:17:44.547Z,8.7
2018-02-04T14:18:43.965Z,8.7
2018-02-04T14:19:44.079Z,8.7
2018-02-04T14:20:43.611Z,8.6
2018-02-04T14:21:43.642Z,8.6
2018-02-04T14:22:43.528Z,8.6
2018-02-04T14:23:43.250Z,8.6
2018-02-04T14:24:43.546Z,8.5
2018-02-04T14:25:43.631Z,8.5
2018-02-04T14:26:43.344Z,8.4
2018-02-04T14:27:43.068Z,8.4
2018-02-04T14:28:42.819Z,8.3
2018-02-04T14:29:43.071Z,8.3
2018-02-04T14:30:43.153Z,8.3
2018-02-04T14:31:43.250Z,8.3
2018-02-04T14:32:43.067Z,8.3
2018-02-04T14:33:43.275Z,8.3
2018-02-04T14:34:42.542Z,8.2
2018-02-04T14:35:42.286Z,8.1
2018-02-04T14:36:42.251Z,8.2
2018-02-04T14:37:42.389Z,8.1
2018-02-04T14:38:42.310Z,8.1
2018-02-04T14:39:42.488Z,8.1
2018-02-04T14:40:42.110Z,8.1
2018-02-04T14:41:42.238Z,8
2018-02-04T14:42:42.267Z,8
2018-02-04T14:43:42.035Z,8
2018-02-04T14:44:42.210Z,7.9
2018-02-04T14:45:41.766Z,7.9
2018-02-04T14:46:41.535Z,7.9
2018-02-04T14:47:41.502Z,7.9
2018-02-04T14:48:41.411Z,7.9
2018-02-04T14:49:41.486Z,7.9
2018-02-04T14:50:41.478Z,7.9
2018-02-04T14:51:41.114Z,7.9
2018-02-04T14:52:41.011Z,7.9
2018-02-04T14:53:41.322Z,7.9
2018-02-04T14:54:41.527Z,7.9
2018-02-04T14:55:41.118Z,7.9
2018-02-04T14:56:40.712Z,7.9
2018-02-04T14:57:40.847Z,7.9
2018-02-04T14:58:40.516Z,7.8
2018-02-04T14:59:40.633Z,7.8
2018-02-04T15:00:40.454Z,7.8
2018-02-04T15:01:40.299Z,7.8
2018-02-04T15:02:40.224Z,7.8
2018-02-04T15:03:40.821Z,7.8
2018-02-04T15:04:40.154Z,7.7
2018-02-04T15:05:39.994Z,7.8
2018-02-04T15:06:39.979Z,7.7
2018-02-04T15:07:39.884Z,7.8
2018-02-04T15:08:40.233Z,7.7
2018-02-04T15:09:40.173Z,7.6
2018-02-04T15:10:39.610Z,7.6
2018-02-04T15:11:39.875Z,7.6
2018-02-04T15:12:39.421Z,7.5
2018-02-04T15:13:39.466Z,7.5
2018-02-04T15:14:39.445Z,7.5
2018-02-04T15:15:40.434Z,7.4
2018-02-04T15:16:39.474Z,7.4
2018-02-04T15:17:39.029Z,7.4
2018-02-04T15:18:39.408Z,7.4
2018-02-04T15:19:39.003Z,7.3
2018-02-04T15:20:39.527Z,7.3
2018-02-04T15:21:39.496Z,7.3
2018-02-04T15:22:38.986Z,7.3
2018-02-04T15:23:39.146Z,7.2
2018-02-04T15:24:39.113Z,7.2
2018-02-04T15:25:39.083Z,7.2
2018-02-04T15:26:38.371Z,7.2
2018-02-04T15:27:38.746Z,7.1
2018-02-04T15:28:38.180Z,7.1
2018-02-04T15:29:38.538Z,7.1
2018-02-04T15:30:38.046Z,7
2018-02-04T15:31:38.065Z,7
2018-02-04T15:32:38.821Z,7
2018-02-04T15:33:37.985Z,6.9
2018-02-04T15:34:37.722Z,6.9
2018-02-04T15:35:37.994Z,6.9
2018-02-04T15:36:37.796Z,6.9
2018-02-04T15:37:37.586Z,6.9
2018-02-04T15:38:37.809Z,6.8
2018-02-04T15:39:37.594Z,6.8
2018-02-04T15:40:38.073Z,6.8
2018-02-04T15:41:37.824Z,6.7
2018-02-04T15:42:37.206Z,6.8
2018-02-04T15:43:37.282Z,6.8
2018-02-04T15:44:37.235Z,6.8
2018-02-04T15:45:37.280Z,6.8
2018-02-04T15:46:37.297Z,6.7
2018-02-04T15:47:36.933Z,6.7
2018-02-04T15:48:36.998Z,6.7
2018-02-04T15:49:37.025Z,6.7
2018-02-04T15:50:36.439Z,6.6
2018-02-04T15:51:36.539Z,6.6
2018-02-04T15:52:36.310Z,6.6
2018-02-04T15:53:36.710Z,6.5
2018-02-04T15:54:36.647Z,6.5
2018-02-04T15:55:36.229Z,6.4
2018-02-04T15:56:36.411Z,6.4
2018-02-04T15:57:36.328Z,6.4
2018-02-04T15:58:35.898Z,6.4
2018-02-04T15:59:36.066Z,6.4
2018-02-04T16:00:35.873Z,6.4
2018-02-04T16:01:35.713Z,6.4
2018-02-04T16:02:36.075Z,6.5
2018-02-04T16:03:35.767Z,6.7
2018-02-04T16:04:35.694Z,6.9
2018-02-04T16:05:35.767Z,7.1
2018-02-04T16:06:35.606Z,7.2
2018-02-04T16:07:36.092Z,7.3
2018-02-04T16:08:35.864Z,7.4
2018-02-04T16:09:35.284Z,7.5
2018-02-04T16:10:35.065Z,7.6
2018-02-04T16:11:35.018Z,7.7
2018-02-04T16:12:35.048Z,7.8
2018-02-04T16:13:34.699Z,7.8
2018-02-04T16:14:34.991Z,7.9
2018-02-04T16:15:34.501Z,7.9
2018-02-04T16:16:34.690Z,7.9
2018-02-04T16:17:34.477Z,7.9
2018-02-04T16:18:34.493Z,7.9
2018-02-04T16:19:34.920Z,8
2018-02-04T16:20:34.137Z,8.1
2018-02-04T16:21:34.268Z,8.1
2018-02-04T16:22:33.983Z,8.1
2018-02-04T16:23:34.253Z,8.1
2018-02-04T16:24:34.046Z,8.2
2018-02-04T16:25:33.944Z,8.2
2018-02-04T16:26:34.002Z,8.3
2018-02-04T16:27:33.906Z,8.3
2018-02-04T16:28:33.754Z,8.3
2018-02-04T16:29:33.704Z,8.3
2018-02-04T16:30:33.621Z,8.3
2018-02-04T16:31:33.287Z,8.4
2018-02-04T16:32:33.312Z,8.4
2018-02-04T16:33:33.559Z,8.4
2018-02-04T16:34:33.204Z,8.4
2018-02-04T16:35:33.493Z,8.4
2018-02-04T16:36:33.212Z,8.4
2018-02-04T16:37:33.109Z,8.4
2018-02-04T16:38:33.058Z,8.4
2018-02-04T16:39:33.096Z,8.5
2018-02-04T16:40:32.834Z,8.5
2018-02-04T16:41:32.725Z,8.4
2018-02-04T16:42:32.631Z,8.5
2018-02-04T16:43:32.680Z,8.5
2018-02-04T16:44:32.834Z,8.5
2018-02-04T16:45:32.641Z,8.5
2018-02-04T16:46:32.388Z,8.5
2018-02-04T16:47:32.244Z,8.6
2018-02-04T16:48:31.938Z,8.6
2018-02-04T16:49:32.669Z,8.6
2018-02-04T16:50:31.866Z,8.6
2018-02-04T16:51:32.177Z,8.6
2018-02-04T16:52:31.918Z,8.6
2018-02-04T16:53:31.447Z,8.6
2018-02-04T16:54:31.398Z,8.7
2018-02-04T16:55:31.883Z,8.7
2018-02-04T16:56:31.220Z,8.7
2018-02-04T16:57:31.766Z,8.8
2018-02-04T16:58:31.175Z,8.8
2018-02-04T16:59:31.493Z,8.8
2018-02-04T17:00:31.200Z,8.8
2018-02-04T17:01:31.448Z,8.8
2018-02-04T17:02:31.482Z,8.8
2018-02-04T17:03:31.495Z,8.8
2018-02-04T17:04:30.970Z,8.9
2018-02-04T17:05:31.207Z,8.8
2018-02-04T17:06:30.720Z,8.8
2018-02-04T17:07:30.908Z,8.8
2018-02-04T17:08:30.385Z,8.8
2018-02-04T17:09:30.485Z,8.9
2018-02-04T17:10:30.711Z,8.9
2018-02-04T17:11:31.032Z,8.9
2018-02-04T17:12:30.672Z,8.9
2018-02-04T17:13:30.284Z,8.9
2018-02-04T17:14:30.154Z,8.9
2018-02-04T17:15:29.963Z,8.9
2018-02-04T17:16:29.938Z,8.9
2018-02-04T17:17:29.928Z,9
2018-02-04T17:18:29.639Z,8.9
2018-02-04T17:19:29.803Z,8.9
2018-02-04T17:20:29.869Z,9
2018-02-04T17:21:29.635Z,8.9
2018-02-04T17:22:29.390Z,8.9
2018-02-04T17:23:29.452Z,8.9
2018-02-04T17:24:29.654Z,8.9
2018-02-04T17:25:29.203Z,8.9
2018-02-04T17:26:29.190Z,8.9
2018-02-04T17:27:29.242Z,8.9
2018-02-04T17:28:29.063Z,8.9
2018-02-04T17:29:29.068Z,9
2018-02-04T17:30:29.159Z,8.9
2018-02-04T17:31:29.588Z,8.9
2018-02-04T17:32:28.796Z,8.9
2018-02-04T17:33:29.518Z,9
2018-02-04T17:34:28.965Z,9
2018-02-04T17:35:28.842Z,9
2018-02-04T17:36:29.036Z,9
2018-02-04T17:37:28.542Z,9
2018-02-04T17:38:28.685Z,9
2018-02-04T17:39:28.520Z,9.1
2018-02-04T17:40:28.159Z,9.1
2018-02-04T17:41:28.635Z,9.1
2018-02-04T17:42:28.612Z,9.1
2018-02-04T17:43:27.919Z,9.1
2018-02-04T17:44:28.492Z,9.1
2018-02-04T17:45:28.493Z,9.1
2018-02-04T17:46:28.103Z,9.1
2018-02-04T17:47:27.700Z,9.1
2018-02-04T17:48:28.544Z,9.1
2018-02-04T17:49:28.377Z,9.1
2018-02-04T17:50:28.133Z,9.1
2018-02-04T17:51:28.120Z,9.1
2018-02-04T17:52:28.059Z,9.1
2018-02-04T17:53:28.189Z,9.1
2018-02-04T17:54:27.941Z,9.1
2018-02-04T17:55:27.952Z,9.1
2018-02-04T17:56:27.835Z,9.1
2018-02-04T17:57:28.177Z,9.1
2018-02-04T17:58:27.949Z,9.1
2018-02-04T17:59:27.500Z,9
2018-02-04T18:00:27.556Z,9
2018-02-04T18:01:27.224Z,9
2018-02-04T18:02:27.567Z,9
2018-02-04T18:03:27.448Z,9
2018-02-04T18:04:27.232Z,8.9
2018-02-04T18:05:27.046Z,8.9
2018-02-04T18:06:28.131Z,8.9
2018-02-04T18:07:27.066Z,8.9
2018-02-04T18:08:27.041Z,8.9
2018-02-04T18:09:26.622Z,8.9
2018-02-04T18:10:27.152Z,8.8
2018-02-04T18:11:26.471Z,8.8
2018-02-04T18:12:26.849Z,8.8
2018-02-04T18:13:26.468Z,8.8
2018-02-04T18:14:26.536Z,8.8
2018-02-04T18:15:26.567Z,8.8
2018-02-04T18:16:26.087Z,8.8
2018-02-04T18:17:26.188Z,8.7
2018-02-04T18:18:26.084Z,8.7
2018-02-04T18:19:26.151Z,8.7
2018-02-04T18:20:26.182Z,8.7
2018-02-04T18:21:25.923Z,8.6
2018-02-04T18:22:25.722Z,8.6
2018-02-04T18:23:26.004Z,8.6
2018-02-04T18:24:26.096Z,8.6
2018-02-04T18:25:25.687Z,8.6
2018-02-04T18:26:25.710Z,8.5
2018-02-04T18:27:26.127Z,8.5
2018-02-04T18:28:25.357Z,8.4
2018-02-04T18:29:25.576Z,8.4
2018-02-04T18:30:25.108Z,8.4
2018-02-04T18:31:25.383Z,8.4
2018-02-04T18:32:25.061Z,8.4
2018-02-04T18:33:25.345Z,8.3
2018-02-04T18:34:24.822Z,8.3
2018-02-04T18:35:25.077Z,8.3
2018-02-04T18:36:24.892Z,8.3
2018-02-04T18:37:24.526Z,8.3
2018-02-04T18:38:25.181Z,8.3
2018-02-04T18:39:25.144Z,8.3
2018-02-04T18:40:24.566Z,8.3
2018-02-04T18:41:24.356Z,8.3
2018-02-04T18:42:24.481Z,8.3
2018-02-04T18:43:24.492Z,8.2
2018-02-04T18:44:24.048Z,8.2
2018-02-04T18:45:24.451Z,8.2
2018-02-04T18:46:23.775Z,8.2
2018-02-04T18:47:23.888Z,8.2
2018-02-04T18:48:24.488Z,8.2
2018-02-04T18:49:23.595Z,8.2
2018-02-04T18:50:23.684Z,8.2
2018-02-04T18:51:23.663Z,8.2
2018-02-04T18:52:23.603Z,8.2
2018-02-04T18:53:23.309Z,8.3
2018-02-04T18:54:23.564Z,8.3
2018-02-04T18:55:23.746Z,8.3
2018-02-04T18:56:23.056Z,8.3
2018-02-04T18:57:23.894Z,8.3
2018-02-04T18:58:23.131Z,8.3
2018-02-04T18:59:23.633Z,8.3
2018-02-04T19:00:22.829Z,8.3
2018-02-04T19:01:22.540Z,8.3
2018-02-04T19:02:22.685Z,8.3
2018-02-04T19:03:22.752Z,8.3
2018-02-04T19:04:22.559Z,8.3
2018-02-04T19:05:22.400Z,8.3
2018-02-04T19:06:22.468Z,8.3
2018-02-04T19:07:22.537Z,8.3
2018-02-04T19:08:22.253Z,8.3
2018-02-04T19:09:22.505Z,8.4
2018-02-04T19:10:22.298Z,8.3
2018-02-04T19:11:22.288Z,8.4
2018-02-04T19:12:21.958Z,8.4
2018-02-04T19:13:22.239Z,8.4
2018-02-04T19:14:21.653Z,8.4
2018-02-04T19:15:21.815Z,8.4
2018-02-04T19:16:21.693Z,8.4
2018-02-04T19:17:21.391Z,8.4
2018-02-04T19:18:21.871Z,8.4
2018-02-04T19:19:21.177Z,8.4
2018-02-04T19:20:21.522Z,8.4
2018-02-04T19:21:21.038Z,8.4
2018-02-04T19:22:21.173Z,8.4
2018-02-04T19:23:21.624Z,8.4
2018-02-04T19:24:21.372Z,8.4
2018-02-04T19:25:21.197Z,8.4
2018-02-04T19:26:20.943Z,8.4
2018-02-04T19:27:20.662Z,8.4
2018-02-04T19:28:20.858Z,8.4
2018-02-04T19:29:21.096Z,8.4
2018-02-04T19:30:20.764Z,8.4
2018-02-04T19:31:20.573Z,8.4
2018-02-04T19:32:20.896Z,8.4
2018-02-04T19:33:20.514Z,8.4
2018-02-04T19:34:20.015Z,8.4
2018-02-04T19:35:20.053Z,8.4
2018-02-04T19:36:20.352Z,8.4
2018-02-04T19:37:20.244Z,8.4
2018-02-04T19:38:20.339Z,8.4
2018-02-04T19:39:19.822Z,8.4
2018-02-04T19:40:19.942Z,8.5
2018-02-04T19:41:20.032Z,8.4
2018-02-04T19:42:19.793Z,8.5
2018-02-04T19:43:20.066Z,8.5
2018-02-04T19:44:19.891Z,8.5
2018-02-04T19:45:19.247Z,8.5
2018-02-04T19:46:19.303Z,8.5
2018-02-04T19:47:19.103Z,8.6
2018-02-04T19:48:19.501Z,8.6
2018-02-04T19:49:18.924Z,8.6
2018-02-04T19:50:18.762Z,8.6
2018-02-04T19:51:19.318Z,8.6
2018-02-04T19:52:18.903Z,8.6
2018-02-04T19:53:18.848Z,8.6
2018-02-04T19:54:18.960Z,8.6
2018-02-04T19:55:18.586Z,8.6
2018-02-04T19:56:18.441Z,8.6
2018-02-04T19:57:18.883Z,8.6
2018-02-04T19:58:18.254Z,8.6
2018-02-04T19:59:18.344Z,8.6
2018-02-04T20:00:19.022Z,8.6
2018-02-04T20:01:18.399Z,8.6
2018-02-04T20:02:18.728Z,8.6
2018-02-04T20:03:17.989Z,8.7
2018-02-04T20:04:17.888Z,8.6
2018-02-04T20:05:17.586Z,8.6
2018-02-04T20:06:17.630Z,8.6
2018-02-04T20:07:17.670Z,8.6
2018-02-04T20:08:17.271Z,8.6
2018-02-04T20:09:17.795Z,8.6
2018-02-04T20:10:17.652Z,8.6
2018-02-04T20:11:17.087Z,8.6
2018-02-04T20:12:18.139Z,8.6
2018-02-04T20:13:17.516Z,8.6
2018-02-04T20:14:17.223Z,8.5
2018-02-04T20:15:17.174Z,8.5
2018-02-04T20:16:17.161Z,8.5
2018-02-04T20:17:17.068Z,8.5
2018-02-04T20:18:16.810Z,8.5
2018-02-04T20:19:16.841Z,8.4
2018-02-04T20:20:16.726Z,8.4
2018-02-04T20:21:16.348Z,8.4
2018-02-04T20:22:16.492Z,8.4
2018-02-04T20:23:16.426Z,8.4
2018-02-04T20:24:16.462Z,8.3
2018-02-04T20:25:16.232Z,8.3
2018-02-04T20:26:16.437Z,8.2
2018-02-04T20:27:16.169Z,8.2
2018-02-04T20:28:16.698Z,8.2
2018-02-04T20:29:16.401Z,8.1
2018-02-04T20:30:15.799Z,8.1
2018-02-04T20:31:15.793Z,8.1
2018-02-04T20:32:15.724Z,8.1
2018-02-04T20:33:15.614Z,8.1
2018-02-04T20:34:15.461Z,8.1
2018-02-04T20:35:15.592Z,8
2018-02-04T20:36:15.397Z,8
2018-02-04T20:37:15.625Z,8
2018-02-04T20:38:15.769Z,7.9
2018-02-04T20:39:15.133Z,7.9
2018-02-04T20:40:15.076Z,7.9
2018-02-04T20:41:15.148Z,7.9
2018-02-04T20:42:15.399Z,7.9
2018-02-04T20:43:15.296Z,7.9
2018-02-04T20:44:15.114Z,7.9
2018-02-04T20:45:14.564Z,7.8
2018-02-04T20:46:14.516Z,7.9
2018-02-04T20:47:14.729Z,7.8
2018-02-04T20:48:14.557Z,7.8
2018-02-04T20:49:14.208Z,7.9
2018-02-04T20:50:15.128Z,7.8
2018-02-04T20:51:14.704Z,7.8
2018-02-04T20:52:14.608Z,7.8
2018-02-04T20:53:14.196Z,7.8
2018-02-04T20:54:13.976Z,7.8
2018-02-04T20:55:14.392Z,7.8
2018-02-04T20:56:13.860Z,7.8
2018-02-04T20:57:13.778Z,7.8
2018-02-04T20:58:13.688Z,7.8
2018-02-04T20:59:13.753Z,7.8
2018-02-04T21:00:13.462Z,7.8
2018-02-04T21:01:13.866Z,7.8
2018-02-04T21:02:13.351Z,7.8
2018-02-04T21:03:13.477Z,7.8
2018-02-04T21:04:13.245Z,7.7
2018-02-04T21:05:13.447Z,7.7
2018-02-04T21:06:13.027Z,7.7
2018-02-04T21:07:13.260Z,7.7
2018-02-04T21:08:12.973Z,7.8
2018-02-04T21:09:12.820Z,7.8
2018-02-04T21:10:12.635Z,7.7
2018-02-04T21:11:13.078Z,7.7
2018-02-04T21:12:12.463Z,7.7
2018-02-04T21:13:13.159Z,7.8
2018-02-04T21:14:12.329Z,7.7
2018-02-04T21:15:12.460Z,7.8
2018-02-04T21:16:12.459Z,7.8
2018-02-04T21:17:12.300Z,7.7
2018-02-04T21:18:12.030Z,7.8
2018-02-04T21:19:12.306Z,7.8
2018-02-04T21:20:12.135Z,7.8
2018-02-04T21:21:12.073Z,7.8
2018-02-04T21:22:12.007Z,7.8
2018-02-04T21:23:11.935Z,7.8
2018-02-04T21:24:11.977Z,7.8
2018-02-04T21:25:11.597Z,7.8
2018-02-04T21:26:11.694Z,7.8
2018-02-04T21:27:11.433Z,7.8
2018-02-04T21:28:11.361Z,7.9
2018-02-04T21:29:11.364Z,7.9
2018-02-04T21:30:11.594Z,7.9
2018-02-04T21:31:11.157Z,7.9
2018-02-04T21:32:11.049Z,7.9
2018-02-04T21:33:10.715Z,7.9
2018-02-04T21:34:10.969Z,7.9
2018-02-04T21:35:10.929Z,7.9
2018-02-04T21:36:11.004Z,7.9
2018-02-04T21:37:10.922Z,7.9
2018-02-04T21:38:11.128Z,7.9
2018-02-04T21:39:11.070Z,7.9
2018-02-04T21:40:10.406Z,7.9
2018-02-04T21:41:10.438Z,7.9
2018-02-04T21:42:10.438Z,7.9
2018-02-04T21:43:10.184Z,7.9
2018-02-04T21:44:11.269Z,7.9
2018-02-04T21:45:09.910Z,7.9
2018-02-04T21:46:10.040Z,7.9
2018-02-04T21:47:10.171Z,7.9
2018-02-04T21:48:10.263Z,7.9
2018-02-04T21:49:10.041Z,7.9
2018-02-04T21:50:09.444Z,7.9
2018-02-04T21:51:09.830Z,7.9
2018-02-04T21:52:09.475Z,7.9
2018-02-04T21:53:10.012Z,7.9
2018-02-04T21:54:09.645Z,7.9
2018-02-04T21:55:09.170Z,7.9
2018-02-04T21:56:09.406Z,7.9
2018-02-04T21:57:09.195Z,7.9
2018-02-04T21:58:08.890Z,7.9
2018-02-04T21:59:08.948Z,7.9
2018-02-04T22:00:09.159Z,7.9
2018-02-04T22:01:08.682Z,7.9
2018-02-04T22:02:09.161Z,7.9
2018-02-04T22:03:08.923Z,7.9
2018-02-04T22:04:08.542Z,7.9
2018-02-04T22:05:09.243Z,7.9
2018-02-04T22:06:08.291Z,8
2018-02-04T22:07:08.293Z,8
2018-02-04T22:08:08.120Z,8
2018-02-04T22:09:08.433Z,8
2018-02-04T22:10:08.402Z,8
2018-02-04T22:11:08.450Z,8.1
2018-02-04T22:12:08.252Z,8
2018-02-04T22:13:08.176Z,8.1
2018-02-04T22:14:07.785Z,8.1
2018-02-04T22:15:07.896Z,8.1
2018-02-04T22:16:08.287Z,8
2018-02-04T22:17:07.778Z,8
2018-02-04T22:18:07.687Z,8
2018-02-04T22:19:07.611Z,8
2018-02-04T22:20:07.504Z,8
2018-02-04T22:21:07.487Z,8
2018-02-04T22:22:07.409Z,7.9
2018-02-04T22:23:07.298Z,7.9
2018-02-04T22:24:07.690Z,7.9
2018-02-04T22:25:07.185Z,7.9
2018-02-04T22:26:07.443Z,7.9
2018-02-04T22:27:07.101Z,7.9
2018-02-04T22:28:06.627Z,7.9
2018-02-04T22:29:06.998Z,7.9
2018-02-04T22:30:06.725Z,7.9
2018-02-04T22:31:06.252Z,7.9
2018-02-04T22:32:06.299Z,7.9
2018-02-04T22:33:06.317Z,7.9
2018-02-04T22:34:06.309Z,7.9
2018-02-04T22:35:06.356Z,7.9
2018-02-04T22:36:06.597Z,7.9
2018-02-04T22:37:06.007Z,7.9
2018-02-04T22:38:06.210Z,7.9
2018-02-04T22:39:06.308Z,7.9
2018-02-04T22:40:05.857Z,7.9
2018-02-04T22:41:05.854Z,7.9
2018-02-04T22:42:05.658Z,7.9
2018-02-04T22:43:05.634Z,7.9
2018-02-04T22:44:06.301Z,7.9
2018-02-04T22:45:05.754Z,7.9
2018-02-04T22:46:05.879Z,7.9
2018-02-04T22:47:05.359Z,7.9
2018-02-04T22:48:05.397Z,7.9
2018-02-04T22:49:05.685Z,7.9
2018-02-04T22:50:05.068Z,7.9
2018-02-04T22:51:05.510Z,7.9
2018-02-04T22:52:04.922Z,7.9
2018-02-04T22:53:05.139Z,7.8
2018-02-04T22:54:05.719Z,7.9
2018-02-04T22:55:04.703Z,7.8
2018-02-04T22:56:04.874Z,7.8
2018-02-04T22:57:04.794Z,7.8
2018-02-04T22:58:04.717Z,7.8
2018-02-04T22:59:04.428Z,7.8
2018-02-04T23:00:04.621Z,7.8
2018-02-04T23:01:04.573Z,7.8
2018-02-04T23:02:04.461Z,7.8
2018-02-04T23:03:04.256Z,7.8
2018-02-04T23:04:04.354Z,7.8
2018-02-04T23:05:04.675Z,7.8
2018-02-04T23:06:04.196Z,7.8
2018-02-04T23:07:04.129Z,7.9
2018-02-04T23:08:04.140Z,7.9
2018-02-04T23:09:04.554Z,7.9
2018-02-04T23:10:03.795Z,7.9
2018-02-04T23:11:04.486Z,7.9
2018-02-04T23:12:04.105Z,7.9
2018-02-04T23:13:04.011Z,7.9
2018-02-04T23:14:03.899Z,7.9
2018-02-04T23:15:03.735Z,7.9
2018-02-04T23:16:03.752Z,7.9
2018-02-04T23:17:03.609Z,7.9
2018-02-04T23:18:03.334Z,7.9
2018-02-04T23:19:03.249Z,7.9
2018-02-04T23:20:03.204Z,7.9
2018-02-04T23:21:03.257Z,7.9
2018-02-04T23:22:03.502Z,7.9
2018-02-04T23:23:02.755Z,7.9
2018-02-04T23:24:02.737Z,7.9
2018-02-04T23:25:02.865Z,7.9
2018-02-04T23:26:02.861Z,7.9
2018-02-04T23:27:02.312Z,8
2018-02-04T23:28:03.666Z,8
2018-02-04T23:29:02.705Z,8
2018-02-04T23:30:02.306Z,8
2018-02-04T23:31:02.712Z,8
2018-02-04T23:32:02.535Z,8
2018-02-04T23:33:02.311Z,8
2018-02-04T23:34:02.149Z,8
2018-02-04T23:35:02.568Z,8.1
2018-02-04T23:36:02.162Z,8.1
2018-02-04T23:37:02.822Z,8.1
2018-02-04T23:38:02.508Z,8.1
2018-02-04T23:39:01.940Z,8.1
2018-02-04T23:40:02.056Z,8.1
2018-02-04T23:41:02.019Z,8.1
2018-02-04T23:42:01.997Z,8.1
2018-02-04T23:43:02.525Z,8.1
2018-02-04T23:44:01.694Z,8.1
2018-02-04T23:45:01.784Z,8.1
2018-02-04T23:46:01.587Z,8.1
2018-02-04T23:47:01.642Z,8.1
2018-02-04T23:48:01.403Z,8.1
2018-02-04T23:49:00.955Z,8.1
2018-02-04T23:50:01.232Z,8.1
2018-02-04T23:51:00.988Z,8.1
2018-02-04T23:52:00.901Z,8.2
2018-02-04T23:53:00.918Z,8.2
2018-02-04T23:54:01.302Z,8.2
2018-02-04T23:55:01.045Z,8.3
2018-02-04T23:56:00.790Z,8.3
2018-02-04T23:57:00.730Z,8.3
2018-02-04T23:58:00.519Z,8.3
2018-02-04T23:59:00.842Z,8.3
